createdAt,value
2017-12-02T00:00:03.728Z,6.03
2017-12-02T00:00:44.208Z,5.97
2017-12-02T00:01:24.751Z,6
2017-12-02T00:02:05.280Z,5.9
2017-12-02T00:02:45.841Z,5.96
2017-12-02T00:03:26.410Z,5.93
2017-12-02T00:04:06.941Z,6.09
2017-12-02T00:04:47.498Z,6.06
2017-12-02T00:05:28.023Z,6.14
2017-12-02T00:06:08.558Z,6.12
2017-12-02T00:06:49.066Z,6.19
2017-12-02T00:07:29.575Z,6.04
2017-12-02T00:08:10.099Z,6.03
2017-12-02T00:08:50.683Z,5.96
2017-12-02T00:09:31.219Z,5.94
2017-12-02T00:10:11.753Z,5.89
2017-12-02T00:10:52.314Z,5.85
2017-12-02T00:11:32.835Z,5.93
2017-12-02T00:12:13.413Z,6
2017-12-02T00:12:53.932Z,5.96
2017-12-02T00:13:34.472Z,5.96
2017-12-02T00:14:15.049Z,5.86
2017-12-02T00:14:55.567Z,5.9
2017-12-02T00:15:36.076Z,5.93
2017-12-02T00:16:16.658Z,6.04
2017-12-02T00:16:57.172Z,6
2017-12-02T00:17:37.737Z,6.11
2017-12-02T00:18:18.260Z,6.08
2017-12-02T00:18:58.809Z,6.15
2017-12-02T00:19:39.344Z,6.08
2017-12-02T00:20:19.941Z,6.18
2017-12-02T00:21:00.439Z,6.04
2017-12-02T00:21:40.960Z,5.93
2017-12-02T00:22:21.526Z,5.97
2017-12-02T00:23:02.042Z,5.97
2017-12-02T00:23:42.611Z,6.12
2017-12-02T00:24:23.126Z,6.04
2017-12-02T00:25:03.643Z,6.04
2017-12-02T00:25:44.188Z,5.99
2017-12-02T00:26:24.721Z,5.91
2017-12-02T00:27:05.252Z,5.99
2017-12-02T00:27:45.774Z,5.96
2017-12-02T00:28:26.338Z,5.99
2017-12-02T00:29:06.833Z,5.86
2017-12-02T00:29:47.358Z,5.83
2017-12-02T00:30:27.885Z,5.89
2017-12-02T00:31:08.417Z,5.75
2017-12-02T00:31:48.947Z,5.71
2017-12-02T00:32:29.458Z,5.74
2017-12-02T00:33:09.988Z,5.89
2017-12-02T00:33:50.522Z,5.81
2017-12-02T00:34:31.066Z,6
2017-12-02T00:35:11.617Z,5.96
2017-12-02T00:35:52.149Z,5.97
2017-12-02T00:36:32.647Z,6
2017-12-02T00:37:13.214Z,5.97
2017-12-02T00:37:53.721Z,6.09
2017-12-02T00:38:34.267Z,6.01
2017-12-02T00:39:14.818Z,6.01
2017-12-02T00:39:55.321Z,6
2017-12-02T00:40:35.866Z,6
2017-12-02T00:41:16.370Z,5.91
2017-12-02T00:41:56.927Z,5.85
2017-12-02T00:42:37.457Z,5.83
2017-12-02T00:43:17.980Z,5.83
2017-12-02T00:43:58.517Z,5.83
2017-12-02T00:44:39.049Z,5.94
2017-12-02T00:45:19.570Z,5.97
2017-12-02T00:46:00.106Z,6
2017-12-02T00:46:40.627Z,6.03
2017-12-02T00:47:21.178Z,6.11
2017-12-02T00:48:01.670Z,6.06
2017-12-02T00:48:42.205Z,5.91
2017-12-02T00:49:22.750Z,6.03
2017-12-02T00:50:03.290Z,5.94
2017-12-02T00:50:43.850Z,5.93
2017-12-02T00:51:24.373Z,5.83
2017-12-02T00:52:04.929Z,5.96
2017-12-02T00:52:45.435Z,5.85
2017-12-02T00:53:25.998Z,5.89
2017-12-02T00:54:06.526Z,5.85
2017-12-02T00:54:47.046Z,5.81
2017-12-02T00:55:27.583Z,5.86
2017-12-02T00:56:08.092Z,5.91
2017-12-02T00:56:48.614Z,5.89
2017-12-02T00:57:29.123Z,5.83
2017-12-02T00:58:09.633Z,5.82
2017-12-02T00:58:50.171Z,5.85
2017-12-02T00:59:30.676Z,5.83
2017-12-02T01:00:11.239Z,6
2017-12-02T01:00:51.726Z,5.93
2017-12-02T01:01:32.285Z,5.94
2017-12-02T01:02:12.849Z,5.99
2017-12-02T01:02:53.484Z,5.99
2017-12-02T01:03:33.940Z,6.06
2017-12-02T01:04:14.474Z,6
2017-12-02T01:04:55.022Z,6.01
2017-12-02T01:05:36.152Z,6.11
2017-12-02T01:06:16.747Z,6.08
2017-12-02T01:06:57.208Z,6.04
2017-12-02T01:07:37.763Z,6
2017-12-02T01:08:18.298Z,5.94
2017-12-02T01:08:58.787Z,6.03
2017-12-02T01:09:39.331Z,5.99
2017-12-02T01:10:19.852Z,5.85
2017-12-02T01:11:00.423Z,5.75
2017-12-02T01:11:40.958Z,5.86
2017-12-02T01:12:21.474Z,5.64
2017-12-02T01:13:02.082Z,5.67
2017-12-02T01:13:42.555Z,5.56
2017-12-02T01:14:23.086Z,5.51
2017-12-02T01:15:03.647Z,5.61
2017-12-02T01:15:44.165Z,5.68
2017-12-02T01:16:24.744Z,5.6
2017-12-02T01:17:05.259Z,5.71
2017-12-02T01:17:45.792Z,5.63
2017-12-02T01:18:26.308Z,5.81
2017-12-02T01:19:06.872Z,5.86
2017-12-02T01:19:47.381Z,5.99
2017-12-02T01:20:27.914Z,5.79
2017-12-02T01:21:08.471Z,5.83
2017-12-02T01:21:48.968Z,5.82
2017-12-02T01:22:29.522Z,5.89
2017-12-02T01:23:10.053Z,5.9
2017-12-02T01:23:50.605Z,5.83
2017-12-02T01:24:31.097Z,5.85
2017-12-02T01:25:11.646Z,5.86
2017-12-02T01:25:52.171Z,5.9
2017-12-02T01:26:32.673Z,5.64
2017-12-02T01:27:13.192Z,5.86
2017-12-02T01:27:53.775Z,5.83
2017-12-02T01:28:34.281Z,5.9
2017-12-02T01:29:14.793Z,5.81
2017-12-02T01:29:55.362Z,5.83
2017-12-02T01:30:35.892Z,5.85
2017-12-02T01:31:16.416Z,5.67
2017-12-02T01:31:56.949Z,5.68
2017-12-02T01:32:37.487Z,5.79
2017-12-02T01:33:18.032Z,5.75
2017-12-02T01:33:58.585Z,5.79
2017-12-02T01:34:39.078Z,5.76
2017-12-02T01:35:19.586Z,5.68
2017-12-02T01:36:00.119Z,5.71
2017-12-02T01:36:40.741Z,5.74
2017-12-02T01:37:21.237Z,5.68
2017-12-02T01:38:01.782Z,5.67
2017-12-02T01:38:42.297Z,5.68
2017-12-02T01:39:22.821Z,5.67
2017-12-02T01:40:03.390Z,5.78
2017-12-02T01:40:43.895Z,5.79
2017-12-02T01:41:24.448Z,5.72
2017-12-02T01:42:04.976Z,5.71
2017-12-02T01:42:45.540Z,5.68
2017-12-02T01:43:26.084Z,5.63
2017-12-02T01:44:06.599Z,5.68
2017-12-02T01:44:47.140Z,5.71
2017-12-02T01:45:27.667Z,5.65
2017-12-02T01:46:08.257Z,5.54
2017-12-02T01:46:48.732Z,5.53
2017-12-02T01:47:29.276Z,5.45
2017-12-02T01:48:09.810Z,5.42
2017-12-02T01:48:50.343Z,5.27
2017-12-02T01:49:30.868Z,5.3
2017-12-02T01:50:11.408Z,5.38
2017-12-02T01:50:51.966Z,5.39
2017-12-02T01:51:32.487Z,5.48
2017-12-02T01:52:13.040Z,5.58
2017-12-02T01:52:53.570Z,5.58
2017-12-02T01:53:34.107Z,5.64
2017-12-02T01:54:14.649Z,5.61
2017-12-02T01:54:55.191Z,5.6
2017-12-02T01:55:35.721Z,5.72
2017-12-02T01:56:16.285Z,5.63
2017-12-02T01:56:56.802Z,5.74
2017-12-02T01:57:37.316Z,5.67
2017-12-02T01:58:17.860Z,5.64
2017-12-02T01:58:58.395Z,5.6
2017-12-02T01:59:38.951Z,5.56
2017-12-02T02:00:19.459Z,5.48
2017-12-02T02:01:00.032Z,5.56
2017-12-02T02:01:40.574Z,5.53
2017-12-02T02:02:21.055Z,5.61
2017-12-02T02:03:01.623Z,5.63
2017-12-02T02:03:42.115Z,5.65
2017-12-02T02:04:22.627Z,5.63
2017-12-02T02:05:03.166Z,5.6
2017-12-02T02:05:43.731Z,5.57
2017-12-02T02:06:24.183Z,5.71
2017-12-02T02:07:04.760Z,5.61
2017-12-02T02:07:45.260Z,5.46
2017-12-02T02:08:25.842Z,5.42
2017-12-02T02:09:06.388Z,5.39
2017-12-02T02:09:46.901Z,5.49
2017-12-02T02:10:27.469Z,5.4
2017-12-02T02:11:08.028Z,5.21
2017-12-02T02:11:48.563Z,5.3
2017-12-02T02:12:29.071Z,5.43
2017-12-02T02:13:09.605Z,5.27
2017-12-02T02:13:50.163Z,5.35
2017-12-02T02:14:30.666Z,5.39
2017-12-02T02:15:11.222Z,5.33
2017-12-02T02:15:51.725Z,5.43
2017-12-02T02:16:32.230Z,5.22
2017-12-02T02:17:12.786Z,5.31
2017-12-02T02:17:53.297Z,5.27
2017-12-02T02:18:33.819Z,5.4
2017-12-02T02:19:14.346Z,5.36
2017-12-02T02:19:54.901Z,5.48
2017-12-02T02:20:35.409Z,5.45
2017-12-02T02:21:15.981Z,5.46
2017-12-02T02:21:56.476Z,5.53
2017-12-02T02:22:37.018Z,5.46
2017-12-02T02:23:17.540Z,5.38
2017-12-02T02:23:58.088Z,5.33
2017-12-02T02:24:38.607Z,5.3
2017-12-02T02:25:19.188Z,5.3
2017-12-02T02:25:59.715Z,5.4
2017-12-02T02:26:40.258Z,5.27
2017-12-02T02:27:20.784Z,5.43
2017-12-02T02:28:01.338Z,5.3
2017-12-02T02:28:41.902Z,5.33
2017-12-02T02:29:22.437Z,5.25
2017-12-02T02:30:02.950Z,5.28
2017-12-02T02:30:43.499Z,5.21
2017-12-02T02:31:24.046Z,5.3
2017-12-02T02:32:04.551Z,5.31
2017-12-02T02:32:45.081Z,5.3
2017-12-02T02:33:25.619Z,5.24
2017-12-02T02:34:06.139Z,5.13
2017-12-02T02:34:46.700Z,5.07
2017-12-02T02:35:27.220Z,5.1
2017-12-02T02:36:07.754Z,5.21
2017-12-02T02:36:48.359Z,5.1
2017-12-02T02:37:28.919Z,5.18
2017-12-02T02:38:09.455Z,5.07
2017-12-02T02:38:49.976Z,5.13
2017-12-02T02:39:30.513Z,4.94
2017-12-02T02:40:11.059Z,4.91
2017-12-02T02:40:51.592Z,4.72
2017-12-02T02:41:32.151Z,4.72
2017-12-02T02:42:12.657Z,4.88
2017-12-02T02:42:53.194Z,4.89
2017-12-02T02:43:33.779Z,4.97
2017-12-02T02:44:14.289Z,4.91
2017-12-02T02:44:54.814Z,4.78
2017-12-02T02:45:35.346Z,4.73
2017-12-02T02:46:15.876Z,4.8
2017-12-02T02:46:56.402Z,4.77
2017-12-02T02:47:36.948Z,4.65
2017-12-02T02:48:17.474Z,4.72
2017-12-02T02:48:58.017Z,4.67
2017-12-02T02:49:38.569Z,4.86
2017-12-02T02:50:19.070Z,4.94
2017-12-02T02:50:59.629Z,4.97
2017-12-02T02:51:40.145Z,5
2017-12-02T02:52:20.666Z,4.89
2017-12-02T02:53:01.191Z,4.97
2017-12-02T02:53:41.735Z,4.92
2017-12-02T02:54:22.255Z,4.94
2017-12-02T02:55:02.821Z,4.94
2017-12-02T02:55:43.369Z,5.04
2017-12-02T02:56:23.874Z,5.09
2017-12-02T02:57:04.485Z,5
2017-12-02T02:57:44.983Z,4.91
2017-12-02T02:58:25.505Z,5.02
2017-12-02T02:59:06.062Z,4.99
2017-12-02T02:59:46.575Z,4.97
2017-12-02T03:00:27.094Z,5.04
2017-12-02T03:01:07.652Z,5.09
2017-12-02T03:01:48.201Z,5.1
2017-12-02T03:02:28.722Z,5.12
2017-12-02T03:03:09.277Z,5.13
2017-12-02T03:03:49.824Z,5.07
2017-12-02T03:04:30.392Z,5.09
2017-12-02T03:05:10.949Z,5.09
2017-12-02T03:05:51.464Z,5.07
2017-12-02T03:06:32.009Z,5.07
2017-12-02T03:07:12.516Z,4.88
2017-12-02T03:07:53.058Z,4.86
2017-12-02T03:08:33.623Z,4.75
2017-12-02T03:09:14.146Z,4.8
2017-12-02T03:09:54.685Z,4.89
2017-12-02T03:10:35.236Z,4.86
2017-12-02T03:11:15.813Z,4.84
2017-12-02T03:11:56.336Z,4.75
2017-12-02T03:12:36.864Z,4.69
2017-12-02T03:13:17.414Z,4.75
2017-12-02T03:13:57.934Z,4.77
2017-12-02T03:14:38.484Z,4.73
2017-12-02T03:15:19.051Z,4.73
2017-12-02T03:15:59.565Z,4.77
2017-12-02T03:16:40.102Z,4.73
2017-12-02T03:17:20.644Z,4.72
2017-12-02T03:18:01.189Z,4.62
2017-12-02T03:18:41.723Z,4.63
2017-12-02T03:19:22.270Z,4.63
2017-12-02T03:20:02.782Z,4.62
2017-12-02T03:20:43.327Z,4.62
2017-12-02T03:21:23.879Z,4.6
2017-12-02T03:22:04.399Z,4.51
2017-12-02T03:22:45.052Z,4.59
2017-12-02T03:23:25.587Z,4.65
2017-12-02T03:24:06.116Z,4.65
2017-12-02T03:24:46.690Z,4.59
2017-12-02T03:25:27.203Z,4.52
2017-12-02T03:26:07.729Z,4.48
2017-12-02T03:26:48.265Z,4.52
2017-12-02T03:27:28.771Z,4.55
2017-12-02T03:28:09.269Z,4.55
2017-12-02T03:28:49.830Z,4.54
2017-12-02T03:29:30.350Z,4.65
2017-12-02T03:30:10.915Z,4.58
2017-12-02T03:30:51.429Z,4.6
2017-12-02T03:31:31.977Z,4.6
2017-12-02T03:32:12.514Z,4.6
2017-12-02T03:32:53.064Z,4.55
2017-12-02T03:33:33.562Z,4.55
2017-12-02T03:34:14.108Z,4.6
2017-12-02T03:34:54.621Z,4.58
2017-12-02T03:35:35.150Z,4.59
2017-12-02T03:36:15.643Z,4.6
2017-12-02T03:36:56.177Z,4.66
2017-12-02T03:37:36.710Z,4.63
2017-12-02T03:38:17.221Z,4.66
2017-12-02T03:38:57.793Z,4.72
2017-12-02T03:39:38.302Z,4.72
2017-12-02T03:40:18.811Z,4.69
2017-12-02T03:40:59.368Z,4.73
2017-12-02T03:41:39.906Z,4.82
2017-12-02T03:42:20.478Z,4.77
2017-12-02T03:43:00.978Z,4.75
2017-12-02T03:43:41.547Z,4.65
2017-12-02T03:44:22.016Z,4.58
2017-12-02T03:45:02.565Z,4.67
2017-12-02T03:45:43.130Z,4.75
2017-12-02T03:46:23.623Z,4.69
2017-12-02T03:47:04.176Z,4.72
2017-12-02T03:47:44.698Z,4.67
2017-12-02T03:48:25.193Z,4.77
2017-12-02T03:49:05.781Z,4.73
2017-12-02T03:49:46.253Z,4.82
2017-12-02T03:50:26.814Z,4.88
2017-12-02T03:51:07.362Z,4.85
2017-12-02T03:51:47.858Z,4.89
2017-12-02T03:52:28.369Z,4.89
2017-12-02T03:53:08.921Z,4.73
2017-12-02T03:53:49.481Z,4.84
2017-12-02T03:54:29.998Z,4.84
2017-12-02T03:55:10.527Z,4.77
2017-12-02T03:55:51.086Z,4.77
2017-12-02T03:56:31.591Z,4.84
2017-12-02T03:57:12.152Z,4.77
2017-12-02T03:57:52.639Z,4.84
2017-12-02T03:58:33.162Z,4.84
2017-12-02T03:59:13.700Z,4.8
2017-12-02T03:59:54.220Z,4.73
2017-12-02T04:00:34.771Z,4.89
2017-12-02T04:01:15.323Z,4.85
2017-12-02T04:01:55.845Z,4.73
2017-12-02T04:02:36.374Z,4.66
2017-12-02T04:03:16.881Z,4.72
2017-12-02T04:03:57.434Z,4.66
2017-12-02T04:04:37.976Z,4.77
2017-12-02T04:05:18.512Z,4.73
2017-12-02T04:05:59.157Z,4.78
2017-12-02T04:06:39.679Z,4.86
2017-12-02T04:07:20.186Z,4.94
2017-12-02T04:08:00.713Z,4.77
2017-12-02T04:08:41.254Z,4.94
2017-12-02T04:09:21.823Z,4.99
2017-12-02T04:10:02.356Z,4.96
2017-12-02T04:10:42.884Z,4.8
2017-12-02T04:11:23.391Z,4.78
2017-12-02T04:12:03.944Z,5.04
2017-12-02T04:12:44.514Z,5.13
2017-12-02T04:13:25.017Z,5.1
2017-12-02T04:14:05.549Z,5.04
2017-12-02T04:14:46.096Z,5.21
2017-12-02T04:15:26.599Z,5.17
2017-12-02T04:16:07.127Z,5.3
2017-12-02T04:16:47.695Z,5.33
2017-12-02T04:17:28.193Z,5.18
2017-12-02T04:18:08.748Z,5.22
2017-12-02T04:18:49.256Z,5.27
2017-12-02T04:19:29.766Z,5.35
2017-12-02T04:20:10.273Z,5.31
2017-12-02T04:20:50.806Z,5.3
2017-12-02T04:21:31.322Z,5.25
2017-12-02T04:22:11.871Z,5.38
2017-12-02T04:22:52.371Z,5.27
2017-12-02T04:23:32.934Z,5.18
2017-12-02T04:24:13.473Z,5.03
2017-12-02T04:24:53.979Z,5.04
2017-12-02T04:25:34.491Z,5.17
2017-12-02T04:26:15.169Z,5.17
2017-12-02T04:26:55.658Z,5.22
2017-12-02T04:27:36.189Z,5.07
2017-12-02T04:28:16.723Z,4.99
2017-12-02T04:28:57.267Z,5.07
2017-12-02T04:29:37.821Z,5.02
2017-12-02T04:30:18.308Z,4.99
2017-12-02T04:30:58.826Z,4.89
2017-12-02T04:31:39.385Z,4.99
2017-12-02T04:32:19.866Z,4.94
2017-12-02T04:33:00.412Z,4.85
2017-12-02T04:33:40.957Z,4.84
2017-12-02T04:34:21.563Z,4.62
2017-12-02T04:35:02.071Z,4.59
2017-12-02T04:35:42.591Z,4.63
2017-12-02T04:36:23.159Z,4.65
2017-12-02T04:37:03.724Z,4.58
2017-12-02T04:37:44.263Z,4.66
2017-12-02T04:38:24.780Z,4.73
2017-12-02T04:39:05.328Z,4.89
2017-12-02T04:39:45.866Z,4.92
2017-12-02T04:40:26.394Z,4.91
2017-12-02T04:41:06.942Z,4.96
2017-12-02T04:41:47.437Z,4.89
2017-12-02T04:42:28.014Z,4.8
2017-12-02T04:43:08.519Z,4.69
2017-12-02T04:43:49.035Z,4.75
2017-12-02T04:44:29.560Z,4.63
2017-12-02T04:45:10.099Z,4.7
2017-12-02T04:45:50.670Z,4.67
2017-12-02T04:46:31.158Z,4.7
2017-12-02T04:47:11.698Z,4.72
2017-12-02T04:47:52.376Z,4.66
2017-12-02T04:48:32.919Z,4.72
2017-12-02T04:49:13.434Z,4.59
2017-12-02T04:49:53.955Z,4.59
2017-12-02T04:50:34.508Z,4.55
2017-12-02T04:51:15.040Z,4.59
2017-12-02T04:51:55.536Z,4.6
2017-12-02T04:52:36.092Z,4.6
2017-12-02T04:53:16.662Z,4.59
2017-12-02T04:53:57.157Z,4.66
2017-12-02T04:54:37.692Z,4.69
2017-12-02T04:55:18.234Z,4.67
2017-12-02T04:55:58.755Z,4.66
2017-12-02T04:56:39.293Z,4.67
2017-12-02T04:57:19.812Z,4.54
2017-12-02T04:58:00.374Z,4.55
2017-12-02T04:58:40.904Z,4.47
2017-12-02T04:59:21.437Z,4.51
2017-12-02T05:00:01.968Z,4.51
2017-12-02T05:00:42.494Z,4.4
2017-12-02T05:01:22.984Z,4.52
2017-12-02T05:02:03.519Z,4.41
2017-12-02T05:02:44.062Z,4.37
2017-12-02T05:03:24.577Z,4.47
2017-12-02T05:04:05.094Z,4.41
2017-12-02T05:04:45.667Z,4.36
2017-12-02T05:05:26.144Z,4.36
2017-12-02T05:06:06.674Z,4.12
2017-12-02T05:06:47.196Z,3.97
2017-12-02T05:07:27.738Z,4.02
2017-12-02T05:08:08.277Z,4.09
2017-12-02T05:08:48.785Z,4.11
2017-12-02T05:09:29.342Z,4.22
2017-12-02T05:10:09.855Z,4.2
2017-12-02T05:10:50.397Z,4.14
2017-12-02T05:11:30.948Z,4.12
2017-12-02T05:12:11.480Z,4.11
2017-12-02T05:12:51.986Z,4.22
2017-12-02T05:13:32.566Z,4.26
2017-12-02T05:14:13.108Z,4.26
2017-12-02T05:14:53.598Z,4.11
2017-12-02T05:15:34.130Z,4.04
2017-12-02T05:16:14.630Z,4.02
2017-12-02T05:16:55.153Z,4.04
2017-12-02T05:17:35.645Z,3.97
2017-12-02T05:18:16.218Z,4.05
2017-12-02T05:18:56.739Z,4.04
2017-12-02T05:19:37.309Z,4.05
2017-12-02T05:20:17.836Z,4.05
2017-12-02T05:20:58.345Z,4.02
2017-12-02T05:21:38.899Z,4.06
2017-12-02T05:22:19.417Z,3.93
2017-12-02T05:22:59.926Z,4.06
2017-12-02T05:23:40.466Z,4.06
2017-12-02T05:24:20.988Z,4.14
2017-12-02T05:25:01.505Z,4.26
2017-12-02T05:25:42.049Z,4.11
2017-12-02T05:26:22.568Z,3.96
2017-12-02T05:27:03.109Z,3.94
2017-12-02T05:27:43.619Z,3.98
2017-12-02T05:28:24.193Z,3.83
2017-12-02T05:29:04.706Z,3.86
2017-12-02T05:29:45.292Z,3.94
2017-12-02T05:30:25.847Z,3.86
2017-12-02T05:31:06.365Z,3.91
2017-12-02T05:31:46.888Z,3.97
2017-12-02T05:32:27.389Z,4.02
2017-12-02T05:33:07.930Z,4.06
2017-12-02T05:33:48.511Z,4.2
2017-12-02T05:34:29.032Z,4.18
2017-12-02T05:35:09.504Z,4.11
2017-12-02T05:35:49.994Z,4.11
2017-12-02T05:36:30.529Z,4.04
2017-12-02T05:37:11.107Z,4.12
2017-12-02T05:37:51.636Z,4.02
2017-12-02T05:38:32.162Z,4.14
2017-12-02T05:39:12.657Z,4.14
2017-12-02T05:39:53.211Z,4.24
2017-12-02T05:40:33.737Z,4.27
2017-12-02T05:41:14.274Z,4.29
2017-12-02T05:41:54.775Z,4.26
2017-12-02T05:42:35.341Z,4.4
2017-12-02T05:43:15.893Z,4.41
2017-12-02T05:43:56.423Z,4.3
2017-12-02T05:44:36.956Z,4.23
2017-12-02T05:45:17.496Z,4.22
2017-12-02T05:45:57.997Z,4.22
2017-12-02T05:46:38.522Z,4.18
2017-12-02T05:47:19.073Z,4.41
2017-12-02T05:47:59.543Z,4.4
2017-12-02T05:48:40.105Z,4.44
2017-12-02T05:49:20.641Z,4.45
2017-12-02T05:50:01.138Z,4.42
2017-12-02T05:50:41.682Z,4.45
2017-12-02T05:51:22.229Z,4.42
2017-12-02T05:52:02.760Z,4.41
2017-12-02T05:52:43.306Z,4.32
2017-12-02T05:53:23.847Z,4.29
2017-12-02T05:54:04.373Z,4.34
2017-12-02T05:54:44.909Z,4.33
2017-12-02T05:55:25.416Z,4.3
2017-12-02T05:56:05.926Z,4.36
2017-12-02T05:56:46.444Z,4.42
2017-12-02T05:57:26.991Z,4.37
2017-12-02T05:58:07.498Z,4.55
2017-12-02T05:58:48.032Z,4.48
2017-12-02T05:59:28.570Z,4.59
2017-12-02T06:00:09.095Z,4.6
2017-12-02T06:00:49.649Z,4.36
2017-12-02T06:01:30.148Z,4.44
2017-12-02T06:02:10.721Z,4.55
2017-12-02T06:02:51.247Z,4.5
2017-12-02T06:03:31.823Z,4.47
2017-12-02T06:04:12.348Z,4.48
2017-12-02T06:04:52.873Z,4.51
2017-12-02T06:05:33.429Z,4.51
2017-12-02T06:06:13.956Z,4.67
2017-12-02T06:06:54.493Z,4.72
2017-12-02T06:07:35.069Z,4.75
2017-12-02T06:08:15.595Z,4.85
2017-12-02T06:08:56.137Z,4.78
2017-12-02T06:09:36.710Z,4.8
2017-12-02T06:10:17.231Z,4.82
2017-12-02T06:10:57.827Z,4.91
2017-12-02T06:11:38.422Z,4.89
2017-12-02T06:12:18.961Z,4.92
2017-12-02T06:12:59.463Z,4.75
2017-12-02T06:13:39.958Z,4.7
2017-12-02T06:14:20.492Z,4.73
2017-12-02T06:15:01.026Z,4.85
2017-12-02T06:15:41.556Z,4.86
2017-12-02T06:16:22.111Z,4.89
2017-12-02T06:17:02.603Z,4.89
2017-12-02T06:17:43.188Z,4.89
2017-12-02T06:18:23.687Z,4.89
2017-12-02T06:19:04.224Z,4.92
2017-12-02T06:19:44.741Z,4.96
2017-12-02T06:20:25.301Z,5
2017-12-02T06:21:05.825Z,4.92
2017-12-02T06:21:46.327Z,4.84
2017-12-02T06:22:26.905Z,4.89
2017-12-02T06:23:07.445Z,4.91
2017-12-02T06:23:48.009Z,5.03
2017-12-02T06:24:28.486Z,5.03
2017-12-02T06:25:09.008Z,5.03
2017-12-02T06:25:49.540Z,5
2017-12-02T06:26:30.104Z,4.97
2017-12-02T06:27:10.586Z,4.89
2017-12-02T06:27:51.126Z,4.91
2017-12-02T06:28:31.654Z,5
2017-12-02T06:29:12.173Z,5
2017-12-02T06:29:52.711Z,5.02
2017-12-02T06:30:33.246Z,5.12
2017-12-02T06:31:13.795Z,5.09
2017-12-02T06:31:54.344Z,4.89
2017-12-02T06:32:34.834Z,4.88
2017-12-02T06:33:15.367Z,4.97
2017-12-02T06:33:55.902Z,4.96
2017-12-02T06:34:36.402Z,4.92
2017-12-02T06:35:16.960Z,4.91
2017-12-02T06:35:57.492Z,4.96
2017-12-02T06:36:38.060Z,4.94
2017-12-02T06:37:18.595Z,4.8
2017-12-02T06:37:59.113Z,4.89
2017-12-02T06:38:39.694Z,4.75
2017-12-02T06:39:20.242Z,4.73
2017-12-02T06:40:00.752Z,4.78
2017-12-02T06:40:41.304Z,4.69
2017-12-02T06:41:21.867Z,4.63
2017-12-02T06:42:02.468Z,4.59
2017-12-02T06:42:42.976Z,4.62
2017-12-02T06:43:23.519Z,4.58
2017-12-02T06:44:04.050Z,4.62
2017-12-02T06:44:44.582Z,4.72
2017-12-02T06:45:25.112Z,4.66
2017-12-02T06:46:05.643Z,4.72
2017-12-02T06:46:46.207Z,4.5
2017-12-02T06:47:26.754Z,4.59
2017-12-02T06:48:07.270Z,4.6
2017-12-02T06:48:47.804Z,4.62
2017-12-02T06:49:28.334Z,4.65
2017-12-02T06:50:08.824Z,4.73
2017-12-02T06:50:49.397Z,4.8
2017-12-02T06:51:29.917Z,4.75
2017-12-02T06:52:10.438Z,4.86
2017-12-02T06:52:50.933Z,4.82
2017-12-02T06:53:31.466Z,4.7
2017-12-02T06:54:12.046Z,4.7
2017-12-02T06:54:52.568Z,4.67
2017-12-02T06:55:33.124Z,4.8
2017-12-02T06:56:13.640Z,4.85
2017-12-02T06:56:54.145Z,4.99
2017-12-02T06:57:34.672Z,5
2017-12-02T06:58:15.225Z,4.97
2017-12-02T06:58:55.750Z,5.09
2017-12-02T06:59:36.331Z,4.94
2017-12-02T07:00:16.900Z,4.7
2017-12-02T07:00:57.416Z,4.6
2017-12-02T07:01:37.979Z,4.66
2017-12-02T07:02:18.534Z,4.73
2017-12-02T07:02:59.090Z,4.88
2017-12-02T07:03:39.661Z,5
2017-12-02T07:04:20.193Z,4.97
2017-12-02T07:05:00.676Z,4.91
2017-12-02T07:05:41.212Z,4.96
2017-12-02T07:06:21.750Z,4.94
2017-12-02T07:07:02.244Z,4.86
2017-12-02T07:07:42.763Z,4.89
2017-12-02T07:08:23.302Z,4.97
2017-12-02T07:09:03.877Z,4.97
2017-12-02T07:09:44.388Z,4.94
2017-12-02T07:10:25.137Z,4.82
2017-12-02T07:11:05.630Z,4.89
2017-12-02T07:11:46.204Z,4.84
2017-12-02T07:12:26.751Z,4.77
2017-12-02T07:13:07.269Z,4.92
2017-12-02T07:13:47.800Z,4.88
2017-12-02T07:14:28.348Z,4.91
2017-12-02T07:15:08.836Z,4.96
2017-12-02T07:15:49.408Z,5.02
2017-12-02T07:16:29.922Z,5
2017-12-02T07:17:10.468Z,4.97
2017-12-02T07:17:50.981Z,4.78
2017-12-02T07:18:31.509Z,4.65
2017-12-02T07:19:12.082Z,4.67
2017-12-02T07:19:52.651Z,4.73
2017-12-02T07:20:33.149Z,4.8
2017-12-02T07:21:13.677Z,4.67
2017-12-02T07:21:54.173Z,4.69
2017-12-02T07:22:34.727Z,4.67
2017-12-02T07:23:15.261Z,4.78
2017-12-02T07:23:55.775Z,4.77
2017-12-02T07:24:36.315Z,4.8
2017-12-02T07:25:16.841Z,4.73
2017-12-02T07:25:57.375Z,4.77
2017-12-02T07:26:37.918Z,4.88
2017-12-02T07:27:18.450Z,4.77
2017-12-02T07:27:58.996Z,4.85
2017-12-02T07:28:39.492Z,4.8
2017-12-02T07:29:20.035Z,4.78
2017-12-02T07:30:00.605Z,4.73
2017-12-02T07:30:41.107Z,4.73
2017-12-02T07:31:21.638Z,4.72
2017-12-02T07:32:02.215Z,4.89
2017-12-02T07:32:42.865Z,4.92
2017-12-02T07:33:23.261Z,4.85
2017-12-02T07:34:03.857Z,4.77
2017-12-02T07:34:44.395Z,4.73
2017-12-02T07:35:25.647Z,4.69
2017-12-02T07:36:05.735Z,4.78
2017-12-02T07:36:46.090Z,4.97
2017-12-02T07:37:26.619Z,5
2017-12-02T07:38:07.163Z,5
2017-12-02T07:38:47.711Z,5.04
2017-12-02T07:39:28.280Z,4.96
2017-12-02T07:40:08.760Z,4.72
2017-12-02T07:40:49.267Z,4.67
2017-12-02T07:41:29.782Z,4.7
2017-12-02T07:42:10.297Z,4.77
2017-12-02T07:42:50.800Z,4.66
2017-12-02T07:43:31.329Z,4.69
2017-12-02T07:44:11.834Z,4.6
2017-12-02T07:44:52.353Z,4.69
2017-12-02T07:45:32.902Z,4.66
2017-12-02T07:46:13.440Z,4.72
2017-12-02T07:46:54.057Z,4.7
2017-12-02T07:47:34.612Z,4.86
2017-12-02T07:48:15.183Z,4.88
2017-12-02T07:48:55.781Z,4.88
2017-12-02T07:49:36.224Z,4.82
2017-12-02T07:50:16.775Z,4.84
2017-12-02T07:50:57.281Z,4.88
2017-12-02T07:51:37.824Z,4.92
2017-12-02T07:52:18.386Z,4.8
2017-12-02T07:52:58.950Z,4.82
2017-12-02T07:53:39.419Z,5.03
2017-12-02T07:54:19.908Z,5
2017-12-02T07:55:00.440Z,5.06
2017-12-02T07:55:40.996Z,5.09
2017-12-02T07:56:21.569Z,5.17
2017-12-02T07:57:02.068Z,5.13
2017-12-02T07:57:42.664Z,5.02
2017-12-02T07:58:23.141Z,5.04
2017-12-02T07:59:03.728Z,5.18
2017-12-02T07:59:44.247Z,5.22
2017-12-02T08:00:24.766Z,4.99
2017-12-02T08:01:05.309Z,5.02
2017-12-02T08:01:45.822Z,5.02
2017-12-02T08:02:26.394Z,5.06
2017-12-02T08:03:06.894Z,5.15
2017-12-02T08:03:47.432Z,5.15
2017-12-02T08:04:27.957Z,5.21
2017-12-02T08:05:08.511Z,5.13
2017-12-02T08:05:49.033Z,5.12
2017-12-02T08:06:29.570Z,5.06
2017-12-02T08:07:10.162Z,5.06
2017-12-02T08:07:50.699Z,5.15
2017-12-02T08:08:31.230Z,5.09
2017-12-02T08:09:11.782Z,5.04
2017-12-02T08:09:52.346Z,4.97
2017-12-02T08:10:32.867Z,4.99
2017-12-02T08:11:13.449Z,5.02
2017-12-02T08:11:53.994Z,4.94
2017-12-02T08:12:34.494Z,4.96
2017-12-02T08:13:15.112Z,5.13
2017-12-02T08:13:55.676Z,5.07
2017-12-02T08:14:36.193Z,5.04
2017-12-02T08:15:16.742Z,4.75
2017-12-02T08:15:57.236Z,4.65
2017-12-02T08:16:37.780Z,4.7
2017-12-02T08:17:18.370Z,4.58
2017-12-02T08:17:58.858Z,4.69
2017-12-02T08:18:39.380Z,4.55
2017-12-02T08:19:19.888Z,4.62
2017-12-02T08:20:00.448Z,4.7
2017-12-02T08:20:41.133Z,4.88
2017-12-02T08:21:21.681Z,4.82
2017-12-02T08:22:02.220Z,4.78
2017-12-02T08:22:42.786Z,4.73
2017-12-02T08:23:23.246Z,4.73
2017-12-02T08:24:03.804Z,4.55
2017-12-02T08:24:44.346Z,4.51
2017-12-02T08:25:24.861Z,4.55
2017-12-02T08:26:05.408Z,4.73
2017-12-02T08:26:45.937Z,4.63
2017-12-02T08:27:26.559Z,4.82
2017-12-02T08:28:07.007Z,4.82
2017-12-02T08:28:47.558Z,4.75
2017-12-02T08:29:28.068Z,4.85
2017-12-02T08:30:08.621Z,4.86
2017-12-02T08:30:49.134Z,4.8
2017-12-02T08:31:29.691Z,4.8
2017-12-02T08:32:10.202Z,4.77
2017-12-02T08:32:50.780Z,4.58
2017-12-02T08:33:31.341Z,4.48
2017-12-02T08:34:11.843Z,4.5
2017-12-02T08:34:52.376Z,4.51
2017-12-02T08:35:32.901Z,4.42
2017-12-02T08:36:13.459Z,4.34
2017-12-02T08:36:53.991Z,4.59
2017-12-02T08:37:34.536Z,4.58
2017-12-02T08:38:15.108Z,4.66
2017-12-02T08:38:55.574Z,4.5
2017-12-02T08:39:36.143Z,4.6
2017-12-02T08:40:16.675Z,4.62
2017-12-02T08:40:57.211Z,4.69
2017-12-02T08:41:37.749Z,4.75
2017-12-02T08:42:18.245Z,4.91
2017-12-02T08:42:58.891Z,4.94
2017-12-02T08:43:39.295Z,4.84
2017-12-02T08:44:19.901Z,4.99
2017-12-02T08:45:00.431Z,5.03
2017-12-02T08:45:40.998Z,5.06
2017-12-02T08:46:21.462Z,5.18
2017-12-02T08:47:02.030Z,5.09
2017-12-02T08:47:42.531Z,5.07
2017-12-02T08:48:23.070Z,5.1
2017-12-02T08:49:03.554Z,5.07
2017-12-02T08:49:44.102Z,5.09
2017-12-02T08:50:24.649Z,5.1
2017-12-02T08:51:05.201Z,5.06
2017-12-02T08:51:45.791Z,5.03
2017-12-02T08:52:26.372Z,5.1
2017-12-02T08:53:06.981Z,5.04
2017-12-02T08:53:47.479Z,4.94
2017-12-02T08:54:27.996Z,4.97
2017-12-02T08:55:08.591Z,5.13
2017-12-02T08:55:49.104Z,5.13
2017-12-02T08:56:29.637Z,5.13
2017-12-02T08:57:10.211Z,5.22
2017-12-02T08:57:50.764Z,5.24
2017-12-02T08:58:31.309Z,5.2
2017-12-02T08:59:11.860Z,5.3
2017-12-02T08:59:52.459Z,5.27
2017-12-02T09:00:32.957Z,5.22
2017-12-02T09:01:13.488Z,5.3
2017-12-02T09:01:53.992Z,5.22
2017-12-02T09:02:34.549Z,5.25